createdAt,value
2023-02-14T00:01:48.733Z,7.38
2023-02-14T00:04:19.733Z,7.80
2023-02-14T00:09:17.832Z,7.93
2023-02-14T00:11:46.466Z,8.02
2023-02-14T00:14:32.605Z,8.02
2023-02-14T00:17:00.926Z,8.00
2023-02-14T00:19:31.669Z,7.88
2023-02-14T00:21:59.934Z,8.48
2023-02-14T00:24:28.690Z,7.78
2023-02-14T00:26:57.314Z,7.82
2023-02-14T00:29:27.643Z,7.78
2023-02-14T00:31:56.066Z,7.90
2023-02-14T00:34:24.594Z,7.38
2023-02-14T00:36:54.428Z,8.23
2023-02-14T00:39:22.768Z,7.13
2023-02-14T00:41:51.105Z,7.60
2023-02-14T00:44:19.456Z,7.18
2023-02-14T00:46:47.895Z,8.02
2023-02-14T00:49:16.224Z,6.70
2023-02-14T00:51:44.603Z,7.38
2023-02-14T00:54:14.258Z,8.02
2023-02-14T00:56:42.661Z,7.70
2023-02-14T00:59:11.151Z,6.53
2023-02-14T01:01:39.406Z,6.70
2023-02-14T01:04:07.995Z,7.35
2023-02-14T01:06:36.383Z,7.18
2023-02-14T01:09:04.811Z,7.47
2023-02-14T01:11:34.913Z,7.28
2023-02-14T01:14:03.419Z,6.95
2023-02-14T01:16:32.370Z,8.07
2023-02-14T01:19:01.713Z,7.00
2023-02-14T01:21:31.424Z,6.35
2023-02-14T01:24:02.237Z,7.25
2023-02-14T01:26:30.990Z,6.90
2023-02-14T01:29:00.694Z,6.35
2023-02-14T01:31:31.410Z,6.78
2023-02-14T01:34:00.733Z,6.95
2023-02-14T01:36:31.216Z,6.85
2023-02-14T01:39:02.448Z,6.68
2023-02-14T01:41:33.734Z,6.97
2023-02-14T01:46:34.113Z,6.90
2023-02-14T01:49:07.271Z,6.90
2023-02-14T01:51:38.221Z,6.50
2023-02-14T01:54:09.160Z,7.18
2023-02-14T01:56:41.863Z,7.05
2023-02-14T01:59:15.531Z,6.32
2023-02-14T02:01:44.403Z,6.65
2023-02-14T02:04:16.480Z,6.93
2023-02-14T02:06:48.397Z,7.13
2023-02-14T02:09:21.261Z,6.60
2023-02-14T02:11:50.013Z,5.75
2023-02-14T02:14:21.265Z,6.20
2023-02-14T02:20:04.179Z,6.53
2023-02-14T02:23:13.009Z,6.55
2023-02-14T02:26:04.139Z,6.55
2023-02-14T02:28:58.259Z,6.22
2023-02-14T02:31:57.900Z,6.05
2023-02-14T02:34:55.133Z,6.57
2023-02-14T02:37:36.597Z,6.38
2023-02-14T02:40:23.963Z,6.22
2023-02-14T02:43:03.225Z,6.57
2023-02-14T02:46:02.359Z,6.13
2023-02-14T02:48:38.075Z,5.78
2023-02-14T02:51:28.687Z,6.22
2023-02-14T02:54:04.832Z,6.70
2023-02-14T02:56:47.446Z,6.18
2023-02-14T02:59:20.649Z,5.68
2023-02-14T03:01:53.518Z,6.05
2023-02-14T03:04:40.840Z,6.32
2023-02-14T03:07:23.245Z,6.40
2023-02-14T03:09:56.809Z,6.70
2023-02-14T03:13:15.061Z,6.22
2023-02-14T03:15:58.904Z,6.50
2023-02-14T03:18:58.629Z,5.80
2023-02-14T03:21:35.202Z,6.07
2023-02-14T03:24:10.787Z,5.80
2023-02-14T03:26:48.439Z,6.30
2023-02-14T03:29:23.911Z,5.78
2023-02-14T03:32:00.527Z,6.40
2023-02-14T03:34:36.944Z,5.85
2023-02-14T03:37:11.570Z,5.78
2023-02-14T03:39:44.719Z,6.43
2023-02-14T03:42:19.966Z,5.65
2023-02-14T03:44:50.546Z,5.55
2023-02-14T03:47:21.989Z,6.80
2023-02-14T03:49:53.723Z,5.85
2023-02-14T03:52:23.148Z,6.18
2023-02-14T03:54:55.731Z,5.72
2023-02-14T03:57:27.665Z,5.85
2023-02-14T03:59:57.166Z,5.47
2023-02-14T04:02:30.596Z,5.57
2023-02-14T04:05:01.338Z,5.95
2023-02-14T04:07:29.690Z,6.38
2023-02-14T04:09:58.053Z,6.22
2023-02-14T04:12:37.534Z,6.32
2023-02-14T04:15:07.958Z,6.40
2023-02-14T04:17:54.106Z,6.03
2023-02-14T04:20:22.688Z,5.72
2023-02-14T04:22:52.391Z,6.13
2023-02-14T04:25:22.166Z,5.90
2023-02-14T04:27:51.897Z,6.38
2023-02-14T04:30:20.999Z,6.30
2023-02-14T04:32:49.621Z,5.57
2023-02-14T04:35:18.163Z,6.07
2023-02-14T04:37:46.837Z,4.85
2023-02-14T04:40:17.323Z,5.97
2023-02-14T04:42:45.731Z,6.13
2023-02-14T04:45:16.078Z,5.65
2023-02-14T04:47:44.359Z,5.50
2023-02-14T04:50:12.854Z,5.28
2023-02-14T04:52:42.105Z,5.35
2023-02-14T04:55:11.152Z,5.28
2023-02-14T04:57:39.631Z,5.57
2023-02-14T05:00:08.960Z,5.10
2023-02-14T05:02:38.830Z,5.75
2023-02-14T05:05:07.877Z,5.15
2023-02-14T05:07:36.205Z,5.32
2023-02-14T05:10:04.706Z,5.75
2023-02-14T05:12:33.163Z,5.32
2023-02-14T05:15:01.315Z,4.95
2023-02-14T05:17:29.720Z,5.40
2023-02-14T05:19:59.565Z,5.38
2023-02-14T05:22:27.980Z,5.28
2023-02-14T05:24:56.339Z,5.45
2023-02-14T05:27:24.624Z,5.18
2023-02-14T05:29:53.000Z,5.57
2023-02-14T05:32:21.221Z,5.03
2023-02-14T05:34:49.524Z,5.40
2023-02-14T05:37:19.177Z,5.20
2023-02-14T05:39:47.516Z,5.00
2023-02-14T05:42:15.799Z,5.15
2023-02-14T05:44:44.275Z,5.50
2023-02-14T05:47:13.220Z,5.35
2023-02-14T05:49:41.816Z,5.20
2023-02-14T05:52:10.173Z,5.15
2023-02-14T05:54:39.845Z,5.10
2023-02-14T05:57:08.194Z,4.88
2023-02-14T05:59:36.459Z,5.28
2023-02-14T06:02:04.671Z,4.78
2023-02-14T06:04:33.097Z,4.70
2023-02-14T06:07:01.438Z,4.53
2023-02-14T06:09:29.755Z,5.05
2023-02-14T06:11:59.636Z,4.78
2023-02-14T06:14:28.077Z,5.60
2023-02-14T06:16:56.546Z,4.88
2023-02-14T06:19:24.975Z,5.20
2023-02-14T06:21:53.248Z,5.03
2023-02-14T06:24:21.561Z,4.75
2023-02-14T06:26:49.684Z,4.90
2023-02-14T06:29:19.443Z,4.57
2023-02-14T06:31:48.016Z,4.65
2023-02-14T06:34:16.503Z,5.18
2023-02-14T06:36:44.771Z,5.57
2023-02-14T06:39:13.088Z,4.63
2023-02-14T06:41:41.391Z,5.60
2023-02-14T06:44:10.531Z,4.97
2023-02-14T06:46:40.368Z,5.90
2023-02-14T06:49:08.748Z,5.15
2023-02-14T06:51:37.145Z,5.50
2023-02-14T06:54:05.525Z,5.55
2023-02-14T06:56:34.145Z,5.57
2023-02-14T06:59:03.344Z,5.40
2023-02-14T07:01:31.740Z,4.72
2023-02-14T07:04:01.442Z,4.65
2023-02-14T07:06:29.893Z,5.10
2023-02-14T07:08:58.678Z,4.78
2023-02-14T07:11:28.642Z,5.00
2023-02-14T07:13:56.902Z,4.40
2023-02-14T07:16:25.216Z,5.25
2023-02-14T07:18:53.489Z,4.60
2023-02-14T07:21:23.227Z,5.28
2023-02-14T07:23:51.632Z,5.43
2023-02-14T07:26:19.989Z,5.13
2023-02-14T07:28:49.542Z,5.55
2023-02-14T07:31:18.488Z,5.15
2023-02-14T07:33:46.899Z,8.85
2023-02-14T07:36:15.271Z,9.80
2023-02-14T07:38:45.078Z,10.32
2023-02-14T07:41:13.421Z,8.95
2023-02-14T07:43:41.645Z,9.15
2023-02-14T07:46:10.230Z,8.90
2023-02-14T07:48:40.379Z,9.27
2023-02-14T07:51:08.858Z,9.23
2023-02-14T07:53:37.551Z,8.27
2023-02-14T07:56:08.005Z,8.80
2023-02-14T07:58:36.240Z,8.30
2023-02-14T08:01:04.568Z,9.07
2023-02-14T08:03:32.938Z,7.97
2023-02-14T08:06:01.297Z,8.48
2023-02-14T08:08:31.430Z,7.95
2023-02-14T08:11:00.445Z,8.55
2023-02-14T08:13:30.620Z,8.98
2023-02-14T08:16:09.653Z,8.85
2023-02-14T08:18:40.251Z,8.88
2023-02-14T08:21:11.271Z,9.05
2023-02-14T08:23:39.927Z,8.27
2023-02-14T08:26:09.585Z,9.45
2023-02-14T08:28:39.313Z,9.88
2023-02-14T08:31:07.910Z,8.95
2023-02-14T08:33:36.102Z,9.02
2023-02-14T08:36:04.914Z,8.77
2023-02-14T08:38:33.212Z,8.65
2023-02-14T08:41:05.850Z,8.77
2023-02-14T08:43:35.887Z,8.20
2023-02-14T08:46:05.889Z,9.25
2023-02-14T08:48:38.847Z,8.70
2023-02-14T08:51:09.058Z,8.10
2023-02-14T08:53:37.769Z,9.50
2023-02-14T08:56:07.494Z,9.23
2023-02-14T08:58:36.308Z,8.27
2023-02-14T09:01:10.086Z,9.27
2023-02-14T09:03:38.951Z,8.32
2023-02-14T09:06:08.756Z,8.70
2023-02-14T09:08:37.827Z,8.90
2023-02-14T09:11:09.597Z,8.73
2023-02-14T09:13:38.146Z,8.32
2023-02-14T09:16:09.298Z,8.65
2023-02-14T09:21:09.961Z,9.00
2023-02-14T09:23:38.297Z,9.23
2023-02-14T09:26:10.085Z,8.85
2023-02-14T09:28:38.711Z,8.95
2023-02-14T09:31:13.815Z,9.00
2023-02-14T09:33:42.824Z,9.40
2023-02-14T09:36:28.425Z,9.52
2023-02-14T09:38:56.666Z,8.90
2023-02-14T09:41:53.425Z,9.20
2023-02-14T09:44:27.517Z,8.27
2023-02-14T09:47:00.655Z,9.25
2023-02-14T09:49:33.936Z,9.20
2023-02-14T09:52:05.199Z,9.05
2023-02-14T09:57:08.836Z,8.55
2023-02-14T09:59:44.021Z,10.13
2023-02-14T10:02:31.138Z,9.52
2023-02-14T10:05:07.771Z,8.55
2023-02-14T10:07:50.412Z,8.60
2023-02-14T10:10:25.758Z,8.27
2023-02-14T10:12:58.599Z,9.00
2023-02-14T10:15:29.837Z,8.95
2023-02-14T10:18:05.622Z,7.82
2023-02-14T10:20:37.909Z,8.85
2023-02-14T10:23:13.120Z,7.53
2023-02-14T10:25:46.315Z,8.50
2023-02-14T10:28:16.985Z,7.47
2023-02-14T10:30:56.264Z,7.78
2023-02-14T10:33:31.842Z,6.97
2023-02-14T10:36:04.450Z,8.05
2023-02-14T10:38:42.195Z,8.20
2023-02-14T10:41:32.730Z,7.25
2023-02-14T10:44:14.872Z,8.40
2023-02-14T10:46:50.629Z,7.85
2023-02-14T10:49:30.679Z,7.82
2023-02-14T10:52:08.183Z,7.90
2023-02-14T10:54:39.440Z,7.53
2023-02-14T10:57:14.121Z,8.55
2023-02-14T10:59:51.989Z,8.15
2023-02-14T11:02:24.538Z,9.07
2023-02-14T11:04:54.759Z,8.25
2023-02-14T11:07:23.941Z,7.97
2023-02-14T11:09:52.246Z,7.15
2023-02-14T11:12:42.869Z,8.40
2023-02-14T11:15:20.572Z,8.27
2023-02-14T11:17:49.177Z,7.50
2023-02-14T11:20:27.972Z,7.35
2023-02-14T11:22:56.493Z,6.97
2023-02-14T11:25:26.849Z,8.38
2023-02-14T11:28:02.114Z,7.83
2023-02-14T11:30:35.642Z,8.10
2023-02-14T11:33:04.781Z,7.07
2023-02-14T11:35:34.978Z,7.32
2023-02-14T11:38:05.334Z,7.37
2023-02-14T11:40:36.171Z,7.80
2023-02-14T11:43:21.932Z,7.13
2023-02-14T11:45:51.083Z,7.18
2023-02-14T11:48:36.592Z,6.95
2023-02-14T11:51:10.087Z,6.93
2023-02-14T11:53:46.013Z,6.68
2023-02-14T11:56:15.257Z,7.97
2023-02-14T11:58:50.133Z,7.18
2023-02-14T12:01:25.792Z,7.57
2023-02-14T12:03:58.069Z,7.45
2023-02-14T12:06:30.284Z,7.07
2023-02-14T12:09:13.391Z,7.43
2023-02-14T12:11:41.735Z,7.88
2023-02-14T12:14:22.234Z,7.97
2023-02-14T12:16:57.106Z,8.20
2023-02-14T12:19:35.794Z,7.68
2023-02-14T12:22:07.482Z,7.93
2023-02-14T12:24:39.443Z,7.47
2023-02-14T12:27:21.394Z,8.00
2023-02-14T12:29:53.957Z,6.93
2023-02-14T12:32:25.343Z,7.85
2023-02-14T12:34:59.345Z,8.05
2023-02-14T12:37:41.967Z,7.20
2023-02-14T12:40:20.033Z,8.50
2023-02-14T12:43:17.020Z,7.85
2023-02-14T12:46:20.213Z,7.38
2023-02-14T12:49:04.966Z,7.15
2023-02-14T12:51:42.026Z,8.18
2023-02-14T12:54:34.788Z,7.55
2023-02-14T12:57:11.665Z,7.57
2023-02-14T12:59:50.925Z,7.65
2023-02-14T13:02:46.302Z,8.18
2023-02-14T13:05:23.965Z,8.05
2023-02-14T13:08:11.703Z,7.65
2023-02-14T13:10:54.503Z,8.07
2023-02-14T13:13:33.291Z,7.43
2023-02-14T13:16:13.536Z,8.13
2023-02-14T13:18:50.534Z,8.38
2023-02-14T13:21:24.649Z,7.80
2023-02-14T13:23:56.985Z,7.97
2023-02-14T13:26:31.329Z,8.27
2023-02-14T13:29:04.436Z,9.05
2023-02-14T13:31:33.170Z,9.43
2023-02-14T13:34:08.134Z,10.13
2023-02-14T13:36:38.029Z,9.50
2023-02-14T13:39:06.644Z,8.63
2023-02-14T13:41:41.873Z,8.68
2023-02-14T13:44:10.134Z,8.75
2023-02-14T13:46:52.226Z,8.70
2023-02-14T13:49:32.878Z,7.80
2023-02-14T13:52:03.992Z,9.13
2023-02-14T13:54:45.915Z,8.00
2023-02-14T13:57:34.331Z,7.78
2023-02-14T14:00:38.595Z,7.05
2023-02-14T14:03:09.212Z,7.60
2023-02-14T14:06:00.747Z,7.93
2023-02-14T14:08:40.128Z,7.15
2023-02-14T14:11:14.703Z,7.10
2023-02-14T14:14:04.674Z,6.57
2023-02-14T14:16:35.203Z,6.93
2023-02-14T14:19:05.907Z,7.15
2023-02-14T14:21:35.887Z,7.45
2023-02-14T14:24:18.868Z,7.20
2023-02-14T14:26:48.310Z,7.40
2023-02-14T14:29:23.623Z,7.05
2023-02-14T14:31:55.837Z,6.95
2023-02-14T14:34:26.240Z,6.80
2023-02-14T14:37:03.324Z,7.23
2023-02-14T14:39:33.260Z,6.60
2023-02-14T14:42:09.765Z,7.30
2023-02-14T14:44:48.008Z,7.13
2023-02-14T14:47:19.382Z,6.43
2023-02-14T14:49:48.240Z,7.13
2023-02-14T14:52:36.331Z,6.75
2023-02-14T14:55:06.297Z,6.78
2023-02-14T14:57:37.239Z,7.38
2023-02-14T15:00:20.902Z,6.88
2023-02-14T15:03:00.401Z,6.97
2023-02-14T15:05:30.864Z,7.10
2023-02-14T15:07:59.351Z,7.75
2023-02-14T15:10:30.265Z,6.80
2023-02-14T15:13:17.994Z,6.85
2023-02-14T15:15:52.247Z,7.47
2023-02-14T15:18:22.124Z,7.55
2023-02-14T15:20:51.408Z,8.00
2023-02-14T15:23:23.095Z,7.72
2023-02-14T15:25:52.377Z,8.77
2023-02-14T15:28:31.943Z,8.43
2023-02-14T15:31:04.399Z,8.30
2023-02-14T15:33:34.050Z,8.30
2023-02-14T15:36:06.369Z,8.70
2023-02-14T15:38:37.948Z,8.77
2023-02-14T15:41:06.415Z,8.35
2023-02-14T15:43:37.890Z,8.63
2023-02-14T15:46:19.397Z,8.52
2023-02-14T15:48:47.981Z,8.57
2023-02-14T15:51:20.767Z,8.85
2023-02-14T15:53:53.708Z,8.70
2023-02-14T15:56:26.135Z,9.35
2023-02-14T15:59:00.793Z,8.98
2023-02-14T16:01:31.435Z,9.55
2023-02-14T16:04:02.956Z,8.77
2023-02-14T16:06:34.259Z,9.13
2023-02-14T16:09:03.635Z,8.90
2023-02-14T16:11:35.471Z,9.30
2023-02-14T16:14:27.555Z,8.65
2023-02-14T16:17:01.873Z,8.95
2023-02-14T16:19:38.287Z,8.52
2023-02-14T16:22:07.364Z,8.70
2023-02-14T16:24:37.911Z,9.05
2023-02-14T16:27:07.993Z,8.95
2023-02-14T16:29:37.675Z,9.23
2023-02-14T16:32:18.202Z,8.93
2023-02-14T16:34:48.227Z,8.95
2023-02-14T16:37:22.279Z,9.00
2023-02-14T16:39:52.278Z,8.18
2023-02-14T16:42:20.859Z,8.30
2023-02-14T16:44:49.346Z,8.25
2023-02-14T16:47:21.847Z,8.27
2023-02-14T16:49:50.744Z,7.65
2023-02-14T16:52:23.395Z,7.47
2023-02-14T16:54:51.996Z,7.60
2023-02-14T16:57:22.121Z,7.75
2023-02-14T16:59:51.011Z,7.80
2023-02-14T17:02:20.747Z,7.90
2023-02-14T17:04:49.192Z,7.88
2023-02-14T17:07:17.719Z,7.80
2023-02-14T17:09:49.429Z,6.85
2023-02-14T17:12:21.736Z,6.68
2023-02-14T17:14:55.723Z,6.85
2023-02-14T17:17:26.337Z,7.22
2023-02-14T17:19:54.800Z,7.63
2023-02-14T17:22:23.234Z,6.78
2023-02-14T17:24:51.443Z,6.70
2023-02-14T17:27:19.679Z,7.15
2023-02-14T17:29:48.042Z,6.13
2023-02-14T17:32:16.308Z,6.80
2023-02-14T17:34:46.146Z,7.03
2023-02-14T17:37:14.634Z,7.10
2023-02-14T17:39:42.914Z,6.80
2023-02-14T17:42:12.164Z,5.97
2023-02-14T17:44:40.419Z,6.05
2023-02-14T17:47:08.746Z,6.65
2023-02-14T17:49:36.970Z,5.88
2023-02-14T17:52:07.014Z,6.22
2023-02-14T17:54:38.267Z,5.65
2023-02-14T17:57:06.698Z,6.07
2023-02-14T17:59:35.044Z,5.53
2023-02-14T18:02:03.305Z,6.25
2023-02-14T18:04:33.511Z,6.93
2023-02-14T18:07:01.648Z,6.83
2023-02-14T18:09:31.319Z,6.28
2023-02-14T18:11:59.934Z,6.30
2023-02-14T18:14:28.331Z,6.85
2023-02-14T18:16:56.515Z,6.50
2023-02-14T18:19:25.033Z,6.00
2023-02-14T18:21:53.539Z,6.20
2023-02-14T18:24:22.107Z,6.45
2023-02-14T18:26:51.722Z,6.00
2023-02-14T18:29:20.420Z,6.43
2023-02-14T18:31:48.795Z,6.72
2023-02-14T18:34:17.235Z,6.22
2023-02-14T18:36:45.513Z,6.80
2023-02-14T18:39:14.434Z,5.93
2023-02-14T18:41:42.728Z,5.30
2023-02-14T18:44:13.838Z,6.55
2023-02-14T18:49:10.391Z,6.40
2023-02-14T18:51:39.803Z,6.60
2023-02-14T18:54:08.643Z,6.00
2023-02-14T18:56:38.894Z,6.05
2023-02-14T18:59:08.735Z,6.37
2023-02-14T19:01:40.759Z,5.50
2023-02-14T19:04:12.303Z,5.78
2023-02-14T19:06:41.921Z,6.50
2023-02-14T19:09:12.182Z,5.60
2023-02-14T19:11:40.589Z,5.63
2023-02-14T19:14:11.231Z,6.47
2023-02-14T19:16:50.259Z,6.28
2023-02-14T19:19:19.156Z,5.22
2023-02-14T19:21:47.550Z,6.05
2023-02-14T19:24:18.236Z,5.90
2023-02-14T19:26:46.603Z,5.90
2023-02-14T19:29:17.046Z,5.93
2023-02-14T19:31:49.635Z,6.23
2023-02-14T19:34:20.286Z,5.63
2023-02-14T19:36:49.323Z,5.97
2023-02-14T19:39:19.199Z,6.10
2023-02-14T19:41:48.871Z,5.43
2023-02-14T19:44:18.389Z,6.00
2023-02-14T19:46:48.579Z,5.00
2023-02-14T19:49:18.624Z,5.60
2023-02-14T19:51:48.073Z,5.15
2023-02-14T19:54:16.322Z,5.72
2023-02-14T19:56:46.725Z,5.80
2023-02-14T19:59:20.247Z,5.88
2023-02-14T20:01:51.831Z,5.68
2023-02-14T20:04:21.458Z,6.10
2023-02-14T20:06:50.255Z,5.95
2023-02-14T20:09:19.303Z,5.43
2023-02-14T20:11:50.249Z,5.80
2023-02-14T20:14:20.266Z,6.57
2023-02-14T20:16:50.577Z,5.55
2023-02-14T20:19:21.147Z,6.23
2023-02-14T20:21:50.731Z,5.47
2023-02-14T20:24:20.894Z,5.95
2023-02-14T20:26:50.355Z,6.13
2023-02-14T20:29:19.990Z,5.82
2023-02-14T20:31:51.879Z,6.10
2023-02-14T20:34:20.731Z,5.90
2023-02-14T20:36:53.310Z,5.50
2023-02-14T20:39:23.460Z,6.03
2023-02-14T20:41:51.806Z,5.25
2023-02-14T20:44:21.690Z,5.97
2023-02-14T20:46:53.908Z,5.78
2023-02-14T20:49:24.128Z,5.65
2023-02-14T20:51:52.879Z,5.63
2023-02-14T20:54:22.571Z,5.35
2023-02-14T20:56:51.613Z,5.10
2023-02-14T20:59:24.433Z,5.47
2023-02-14T21:01:54.840Z,6.45
2023-02-14T21:04:24.774Z,5.45
2023-02-14T21:06:53.093Z,5.80
2023-02-14T21:09:21.576Z,5.05
2023-02-14T21:11:50.321Z,5.03
2023-02-14T21:14:19.035Z,5.38
2023-02-14T21:16:47.364Z,4.85
2023-02-14T21:19:17.876Z,5.47
2023-02-14T21:21:46.799Z,5.85
2023-02-14T21:24:18.114Z,5.47
2023-02-14T21:26:47.075Z,4.93
2023-02-14T21:29:15.418Z,4.60
2023-02-14T21:31:43.907Z,5.03
2023-02-14T21:34:12.508Z,5.60
2023-02-14T21:36:42.931Z,5.07
2023-02-14T21:39:11.440Z,4.68
2023-02-14T21:41:39.672Z,4.82
2023-02-14T21:44:08.256Z,5.45
2023-02-14T21:46:41.007Z,4.70
2023-02-14T21:49:26.952Z,4.57
2023-02-14T21:51:56.782Z,5.10
2023-02-14T21:54:25.230Z,4.95
2023-02-14T21:56:53.433Z,4.90
2023-02-14T21:59:21.686Z,4.75
2023-02-14T22:01:50.148Z,4.95
2023-02-14T22:04:18.470Z,4.95
2023-02-14T22:06:46.686Z,4.65
2023-02-14T22:09:18.133Z,4.53
2023-02-14T22:11:47.663Z,4.65
2023-02-14T22:14:16.116Z,4.70
2023-02-14T22:16:44.608Z,4.78
2023-02-14T22:19:16.193Z,4.32
2023-02-14T22:21:45.084Z,5.03
2023-02-14T22:24:13.796Z,5.03
2023-02-14T22:26:43.398Z,4.88
2023-02-14T22:29:13.693Z,4.38
2023-02-14T22:31:43.868Z,5.07
2023-02-14T22:34:14.345Z,4.40
2023-02-14T22:36:42.885Z,4.67
2023-02-14T22:39:14.457Z,4.93
2023-02-14T22:41:44.165Z,4.93
2023-02-14T22:44:13.492Z,4.35
2023-02-14T22:46:41.791Z,4.68
2023-02-14T22:49:10.424Z,4.43
2023-02-14T22:51:40.203Z,4.57
2023-02-14T22:54:12.388Z,4.60
2023-02-14T22:56:44.250Z,4.97
2023-02-14T22:59:17.248Z,4.68
2023-02-14T23:01:46.302Z,4.60
2023-02-14T23:04:16.625Z,4.85
2023-02-14T23:06:45.308Z,4.67
2023-02-14T23:09:14.663Z,4.70
2023-02-14T23:11:46.233Z,4.65
2023-02-14T23:14:32.520Z,4.70
2023-02-14T23:17:18.566Z,4.88
2023-02-14T23:20:05.062Z,4.30
2023-02-14T23:22:35.287Z,4.32
2023-02-14T23:25:07.100Z,4.47
2023-02-14T23:27:40.292Z,4.38
2023-02-14T23:30:12.467Z,4.20
2023-02-14T23:32:40.725Z,4.72
2023-02-14T23:35:09.647Z,4.60
2023-02-14T23:37:38.801Z,4.90
2023-02-14T23:40:09.031Z,4.80
2023-02-14T23:42:38.754Z,4.30
2023-02-14T23:45:25.180Z,4.32
2023-02-14T23:47:53.524Z,4.25
2023-02-14T23:50:21.870Z,4.38
2023-02-14T23:52:50.283Z,4.45
2023-02-14T23:55:18.731Z,4.63
2023-02-14T23:57:48.474Z,4.28
